»·PEaware :: RPA3515 KBOI-KSUN

RPA3515 :: KBOI-KSUN

FLIGHT INFORMATION

Flight Status: Arrived
Operator: Republic Airlines
More flights by this operator :: More flights under this callsign
Pilot: Jose A. (17505)
Aircraft: AIRBUS A320
(A320)
More flights by this aircraft type
Origin: KBOI Boise Air Terminal/Gowen
United States
Destination: KSUN Friedman Meml
United States
More flights between these airports :: More routes between these airports
Route: +BOI3 BOI V444 SOLDE V101 HLE
File this flight plan on PilotEdge
Remarks: PBN / A1B1C1D1L1O1S1T1 NAV / RNVD2E5A2 DOF / 190215 REG / N320YX RVR / 75 OPR / REPUBLIC PER / C
Altitude:
(Current/Filed)
17,000ft
Speed:
(Current/Filed)
351kts
Departed: 14-Feb-19 10:41 PM
Arrived: 14-Feb-19 11:01 PM
Distance/Time
Traveled:
84nm/0:20
Distance/Time
To Go:
Arrived

Flight Plot

Page will automatically refresh every two minutes.

Flight plan parsing failed; only flown route is shown


Map Options




Map Legend


Flown Route
Filed Route
Departure Airport
Arrival Airport
Navaid (VOR, NDB)
Fix

Horizontal Profiles

Position Reports

Time Latitude Longitude Heading Altitude Ground
Speed
14-Feb-19 21:59 43.567253 -116.220697 22 2855ft 0kts
14-Feb-19 22:00 43.567253 -116.220697 22 2855ft 0kts
14-Feb-19 22:01 43.567253 -116.220697 22 2855ft 0kts
14-Feb-19 22:02 43.567253 -116.220697 22 2855ft 0kts
14-Feb-19 22:03 43.567253 -116.220697 22 2855ft 0kts
14-Feb-19 22:04 43.567253 -116.220697 22 2855ft 0kts
14-Feb-19 22:05 43.567253 -116.220697 22 2855ft 0kts
14-Feb-19 22:06 43.567253 -116.220697 22 2855ft 0kts
14-Feb-19 22:07 43.567253 -116.220697 22 2855ft 0kts
14-Feb-19 22:08 43.567253 -116.220697 22 2855ft 0kts
14-Feb-19 22:09 43.567253 -116.220697 22 2855ft 0kts
14-Feb-19 22:10 43.567253 -116.220697 22 2855ft 0kts
14-Feb-19 22:11 43.567253 -116.220697 22 2855ft 0kts
14-Feb-19 22:12 43.567253 -116.220697 22 2855ft 0kts
14-Feb-19 22:13 43.567253 -116.220697 22 2855ft 0kts
14-Feb-19 22:14 43.567253 -116.220697 22 2855ft 0kts
14-Feb-19 22:15 43.567253 -116.220697 22 2855ft 0kts
14-Feb-19 22:16 43.567253 -116.220697 22 2855ft 0kts
14-Feb-19 22:17 43.567253 -116.220697 22 2855ft 0kts
14-Feb-19 22:18 43.567253 -116.220697 22 2855ft 0kts
14-Feb-19 22:19 43.567253 -116.220697 22 2855ft 0kts
14-Feb-19 22:20 43.567253 -116.220697 22 2855ft 0kts
14-Feb-19 22:21 43.567253 -116.220697 22 2855ft 0kts
14-Feb-19 22:22 43.567253 -116.220697 22 2855ft 0kts
14-Feb-19 22:23 43.567253 -116.220697 22 2855ft 0kts
14-Feb-19 22:24 43.567253 -116.220697 22 2855ft 0kts
14-Feb-19 22:25 43.567253 -116.220697 22 2855ft 0kts
14-Feb-19 22:26 43.567253 -116.220697 22 2855ft 0kts
14-Feb-19 22:27 43.567253 -116.220697 22 2855ft 0kts
14-Feb-19 22:28 43.567253 -116.220697 22 2855ft 0kts
14-Feb-19 22:29 43.567253 -116.220697 22 2855ft 0kts
14-Feb-19 22:30 43.567253 -116.220697 22 2855ft 0kts
14-Feb-19 22:31 43.566906 -116.220827 354 2856ft 2kts
14-Feb-19 22:32 43.566501 -116.220438 293 2857ft 1kts
14-Feb-19 22:33 43.566490 -116.220405 295 2857ft 0kts
14-Feb-19 22:34 43.566501 -116.220439 294 2857ft 2kts
14-Feb-19 22:35 43.566323 -116.221905 284 2856ft 6kts
14-Feb-19 22:36 43.568224 -116.227601 294 2849ft 21kts
14-Feb-19 22:37 43.570824 -116.235182 294 2833ft 5kts
14-Feb-19 22:38 43.571048 -116.236698 226 2833ft 1kts
14-Feb-19 22:39 43.569720 -116.235508 115 2837ft 40kts
14-Feb-19 22:40 43.553327 -116.188377 117 4530ft 165kts
14-Feb-19 22:41 43.528891 -116.119504 117 6515ft 246kts
14-Feb-19 22:42 43.495700 -116.023554 118 9193ft 293kts
14-Feb-19 22:43 43.471212 -115.903675 104 10922ft 365kts
14-Feb-19 22:44 43.449854 -115.763729 106 14052ft 364kts
14-Feb-19 22:45 43.428917 -115.630109 107 16485ft 362kts
14-Feb-19 22:46 43.407242 -115.493755 107 17024ft 363kts
14-Feb-19 22:47 43.384238 -115.351075 106 17015ft 415kts
14-Feb-19 22:48 43.357802 -115.187480 106 17017ft 451kts
14-Feb-19 22:49 43.330426 -115.019041 106 17024ft 452kts
14-Feb-19 22:50 43.302770 -114.851134 106 16872ft 445kts
14-Feb-19 22:51 43.275895 -114.689491 106 14010ft 437kts
14-Feb-19 22:52 43.248224 -114.531398 108 11610ft 412kts
14-Feb-19 22:53 43.221523 -114.391962 107 10584ft 330kts
14-Feb-19 22:54 43.233691 -114.285384 38 9839ft 305kts
14-Feb-19 22:55 43.298537 -114.218025 38 8894ft 264kts
14-Feb-19 22:56 43.351471 -114.185911 336 8678ft 168kts
14-Feb-19 22:57 43.394312 -114.215592 332 7966ft 168kts
14-Feb-19 22:58 43.435383 -114.243951 333 6952ft 164kts
14-Feb-19 22:59 43.476621 -114.269100 324 5806ft 160kts
14-Feb-19 23:00 43.506663 -114.298356 324 5311ft 31kts

Navigation Log

Ident Type
Flight plan parsing failed, navigation log unavailable